POGODA: Poland

Lotnisko: Gdansk-Rebiechowo

METAR KOD: EPGD


METAR: EPGD 211200Z 08005KT 9999 FEW023 14/11 Q1013


BLOK
Pogoda METAR
211200Z
Dzien: 21, Godzina: 12:00 UTC.
08005KT
Wiatr z kierunku 080, o predkosci 9 km/h
9999
Widzialnosc pozioma ponad 10 km.
FEW023
1/8 - 2/8 pokrycia nieba, chmurami o podstawie: 690 metrow
14/11
Temperatura: powietrze 14°C, punkt rosy 11°C . Wilgotnosc wzgledna 79 %
Q1013
Cisnienie: 1013 hPa

Pogoda na innym lotnisku

Pogoda Gdansk-Rebiechowo WEATHER Poland  
Pogoda Katowice WEATHER Poland  
Pogoda Krakow WEATHER Poland  
Pogoda Poznan WEATHER Poland  
Pogoda Rzeszow-Jasionka WEATHER Poland  
Pogoda Szczecin WEATHER Poland  
Pogoda Warszawa-Okecie WEATHER Poland  
Pogoda Wroclaw Ii WEATHER Poland  

Pogoda w inny kraju

Strona startowa

(C) by GREGOR 2007
Ogłoszenia Towarzyskie